createdAt,value
2023-02-14T00:00:02.495Z,99949.05
2023-02-14T00:01:09.851Z,99957.64
2023-02-14T00:02:12.220Z,99952.51
2023-02-14T00:03:14.535Z,99945.66
2023-02-14T00:04:18.491Z,99956.77
2023-02-14T00:05:20.608Z,99937.91
2023-02-14T00:06:22.945Z,99937.94
2023-02-14T00:07:26.549Z,99973.01
2023-02-14T00:08:29.448Z,99949.03
2023-02-14T00:09:33.376Z,99956.75
2023-02-14T00:10:35.925Z,99940.48
2023-02-14T00:11:38.992Z,99928.49
2023-02-14T00:12:41.168Z,99926.83
2023-02-14T00:13:44.978Z,99940.47
2023-02-14T00:15:05.497Z,99931.88
2023-02-14T00:16:07.951Z,99936.16
2023-02-14T00:17:10.355Z,99937.88
2023-02-14T00:18:12.378Z,99950.69
2023-02-14T00:19:17.238Z,99938.64
2023-02-14T00:20:20.345Z,99972.95
2023-02-14T00:21:22.882Z,99921.63
2023-02-14T00:22:25.226Z,99959.30
2023-02-14T00:23:27.367Z,99943.91
2023-02-14T00:24:30.042Z,99949.91
2023-02-14T00:25:34.418Z,99934.52
2023-02-14T00:26:38.158Z,99949.02
2023-02-14T00:27:41.965Z,99926.72
2023-02-14T00:28:45.391Z,99925.86
2023-02-14T00:29:47.452Z,99932.72
2023-02-14T00:30:49.851Z,99930.16
2023-02-14T00:31:52.066Z,99931.84
2023-02-14T00:32:54.557Z,99912.16
2023-02-14T00:33:56.973Z,99918.95
2023-02-14T00:34:59.233Z,99915.55
2023-02-14T00:36:08.139Z,99931.84
2023-02-14T00:37:10.404Z,99937.91
2023-02-14T00:38:13.304Z,99926.78
2023-02-14T00:39:17.376Z,99945.56
2023-02-14T00:40:20.058Z,99922.47
2023-02-14T00:42:34.095Z,99918.08
2023-02-14T00:43:36.177Z,99928.41
2023-02-14T00:44:38.269Z,99933.63
2023-02-14T00:45:41.642Z,99914.79
2023-02-14T00:46:44.154Z,99931.05
2023-02-14T00:47:46.566Z,99937.05
2023-02-14T00:48:49.169Z,99954.18
2023-02-14T00:49:51.769Z,99925.13
2023-02-14T00:50:53.998Z,99925.13
2023-02-14T00:51:56.025Z,99947.33
2023-02-14T00:52:58.343Z,99925.92
2023-02-14T00:54:01.290Z,99924.23
2023-02-14T00:55:05.957Z,99945.56
2023-02-14T00:56:08.622Z,99927.59
2023-02-14T00:57:11.240Z,99916.45
2023-02-14T00:58:13.424Z,99942.95
2023-02-14T00:59:15.692Z,99918.20
2023-02-14T01:00:19.972Z,99928.48
2023-02-14T01:01:22.291Z,99923.30
2023-02-14T01:02:24.641Z,99895.89
2023-02-14T01:03:27.820Z,99919.88
2023-02-14T01:04:29.907Z,99923.32
2023-02-14T01:05:32.118Z,99928.43
2023-02-14T01:06:34.950Z,99909.56
2023-02-14T01:07:37.108Z,99913.01
2023-02-14T01:08:39.471Z,99909.56
2023-02-14T01:09:42.379Z,99916.39
2023-02-14T01:10:45.565Z,99895.83
2023-02-14T01:11:48.475Z,99900.91
2023-02-14T01:12:51.209Z,99895.76
2023-02-14T01:13:56.187Z,99912.88
2023-02-14T01:15:00.791Z,99891.55
2023-02-14T01:16:09.459Z,99880.50
2023-02-14T01:17:11.686Z,99880.50
2023-02-14T01:18:15.100Z,99889.81
2023-02-14T01:19:17.389Z,99897.59
2023-02-14T01:20:20.472Z,99891.66
2023-02-14T01:21:25.783Z,99892.47
2023-02-14T01:22:27.910Z,99889.03
2023-02-14T01:23:29.830Z,99901.83
2023-02-14T01:24:32.346Z,99894.12
2023-02-14T01:25:39.668Z,99891.53
2023-02-14T01:26:42.469Z,99904.31
2023-02-14T01:27:44.905Z,99888.89
2023-02-14T01:28:50.103Z,99889.84
2023-02-14T01:29:53.391Z,99911.17
2023-02-14T01:30:55.826Z,99897.53
2023-02-14T01:31:58.528Z,99894.12
2023-02-14T01:33:00.721Z,99875.30
2023-02-14T01:34:03.715Z,99875.30
2023-02-14T01:35:06.145Z,99869.34
2023-02-14T01:36:18.802Z,99858.13
2023-02-14T01:37:20.949Z,99855.56
2023-02-14T01:38:23.811Z,99867.50
2023-02-14T01:39:26.335Z,99849.52
2023-02-14T01:40:28.558Z,99882.98
2023-02-14T01:41:33.286Z,99861.63
2023-02-14T01:42:36.751Z,99855.66
2023-02-14T01:43:53.043Z,99861.64
2023-02-14T01:45:09.436Z,99854.80
2023-02-14T01:46:12.202Z,99872.72
2023-02-14T01:47:16.936Z,99865.00
2023-02-14T01:48:22.114Z,99859.94
2023-02-14T01:49:34.155Z,99868.48
2023-02-14T01:50:41.393Z,99841.91
2023-02-14T01:54:19.965Z,99839.20
2023-02-14T01:55:25.752Z,99850.44
2023-02-14T01:56:31.542Z,99864.07
2023-02-14T01:57:43.100Z,99851.31
2023-02-14T01:58:48.826Z,99828.23
2023-02-14T01:59:55.969Z,99838.45
2023-02-14T02:00:59.543Z,99818.77
2023-02-14T02:02:03.469Z,99830.77
2023-02-14T02:03:07.787Z,99807.70
2023-02-14T02:04:13.694Z,99825.61
2023-02-14T02:05:16.976Z,99797.36
2023-02-14T02:06:31.988Z,99816.15
2023-02-14T02:07:35.878Z,99816.15
2023-02-14T02:08:41.808Z,99828.17
2023-02-14T02:09:52.897Z,99808.49
2023-02-14T02:10:55.053Z,99821.36
2023-02-14T02:11:57.238Z,99812.81
2023-02-14T02:13:03.089Z,99808.57
2023-02-14T02:14:05.933Z,99823.92
2023-02-14T02:15:09.191Z,99823.05
2023-02-14T02:16:21.051Z,99817.80
2023-02-14T02:17:34.020Z,99824.67
2023-02-14T02:18:48.955Z,99815.34
2023-02-14T02:20:14.605Z,99816.20
2023-02-14T02:21:29.738Z,99809.25
2023-02-14T02:22:41.592Z,99800.00
2023-02-14T02:24:16.608Z,99781.11
2023-02-14T02:25:45.528Z,99785.33
2023-02-14T02:26:51.585Z,99788.78
2023-02-14T02:28:31.168Z,99787.95
2023-02-14T02:29:42.862Z,99780.23
2023-02-14T02:30:48.974Z,99790.53
2023-02-14T02:31:57.689Z,99800.81
2023-02-14T02:33:26.387Z,99792.30
2023-02-14T02:35:55.533Z,99800.63
2023-02-14T02:37:13.725Z,99797.42
2023-02-14T02:38:45.821Z,99805.14
2023-02-14T02:39:51.603Z,99792.30
2023-02-14T02:41:01.284Z,99804.20
2023-02-14T02:42:17.845Z,99814.52
2023-02-14T02:43:57.945Z,99804.25
2023-02-14T02:45:19.588Z,99808.42
2023-02-14T02:46:46.804Z,99801.66
2023-02-14T02:48:07.691Z,99815.45
2023-02-14T02:49:41.007Z,99815.43
2023-02-14T02:51:08.861Z,99823.16
2023-02-14T02:52:41.201Z,99821.44
2023-02-14T02:53:56.166Z,99809.41
2023-02-14T02:55:02.426Z,99824.86
2023-02-14T02:56:40.398Z,99824.84
2023-02-14T02:57:45.220Z,99846.23
2023-02-14T02:59:06.214Z,99835.09
2023-02-14T03:00:12.255Z,99844.50
2023-02-14T03:01:19.164Z,99842.81
2023-02-14T03:02:25.069Z,99827.41
2023-02-14T03:03:49.769Z,99853.08
2023-02-14T03:04:55.684Z,99863.36
2023-02-14T03:06:02.041Z,99847.94
2023-02-14T03:07:07.308Z,99851.38
2023-02-14T03:08:09.641Z,99865.93
2023-02-14T03:09:31.426Z,99863.38
2023-02-14T03:10:38.605Z,99873.66
2023-02-14T03:11:45.680Z,99855.69
2023-02-14T03:13:07.435Z,99871.13
2023-02-14T03:14:22.184Z,99876.30
2023-02-14T03:15:34.010Z,99923.45
2023-02-14T03:16:58.715Z,99864.53
2023-02-14T03:18:30.082Z,99889.42
2023-02-14T03:20:07.629Z,99878.37
2023-02-14T03:21:22.951Z,99888.69
2023-02-14T03:22:28.930Z,99894.66
2023-02-14T03:23:35.440Z,99881.89
2023-02-14T03:24:41.224Z,99886.17
2023-02-14T03:26:03.273Z,99887.92
2023-02-14T03:27:32.321Z,99875.07
2023-02-14T03:28:47.055Z,99863.98
2023-02-14T03:29:55.579Z,99882.00
2023-02-14T03:31:04.989Z,99875.12
2023-02-14T03:32:20.387Z,99876.00
2023-02-14T03:33:36.603Z,99901.63
2023-02-14T03:34:55.423Z,99893.11
2023-02-14T03:36:01.535Z,99879.47
2023-02-14T03:37:11.356Z,99882.84
2023-02-14T03:38:23.337Z,99881.17
2023-02-14T03:39:38.682Z,99898.33
2023-02-14T03:40:48.507Z,99879.52
2023-02-14T03:42:03.832Z,99871.84
2023-02-14T03:43:10.818Z,99870.98
2023-02-14T03:44:16.656Z,99865.92
2023-02-14T03:45:31.835Z,99872.77
2023-02-14T03:46:37.925Z,99866.78
2023-02-14T03:47:43.350Z,99864.21
2023-02-14T03:48:49.313Z,99867.59
2023-02-14T03:49:55.249Z,99862.41
2023-02-14T03:50:59.946Z,99930.84
2023-02-14T03:52:05.064Z,99877.03
2023-02-14T03:53:10.101Z,99865.06
2023-02-14T03:54:14.008Z,99861.59
2023-02-14T03:55:19.986Z,99864.17
2023-02-14T03:56:43.039Z,99857.33
2023-02-14T03:58:01.309Z,99865.88
2023-02-14T03:59:10.257Z,99848.83
2023-02-14T04:00:14.809Z,99859.94
2023-02-14T04:01:29.745Z,99883.00
2023-02-14T04:02:38.403Z,99880.45
2023-02-14T04:03:42.510Z,99868.48
2023-02-14T04:04:47.668Z,99859.92
2023-02-14T04:05:51.737Z,99877.85
2023-02-14T04:06:57.005Z,99863.32
2023-02-14T04:07:59.485Z,99861.61
2023-02-14T04:09:01.707Z,99860.71
2023-02-14T04:10:06.609Z,99872.72
2023-02-14T04:11:11.141Z,99879.55
2023-02-14T04:12:15.068Z,99881.27
2023-02-14T04:13:17.471Z,99875.28
2023-02-14T04:14:20.059Z,99864.13
2023-02-14T04:15:21.989Z,99871.01
2023-02-14T04:16:25.140Z,99871.01
2023-02-14T04:17:46.534Z,99892.36
2023-02-14T04:19:06.926Z,99898.33
2023-02-14T04:20:10.573Z,99897.48
2023-02-14T04:21:13.260Z,99889.81
2023-02-14T04:22:16.149Z,99882.13
2023-02-14T04:23:18.512Z,99896.66
2023-02-14T04:24:20.636Z,99892.36
2023-02-14T04:25:23.315Z,99912.04
2023-02-14T04:26:25.426Z,99889.83
2023-02-14T04:27:27.693Z,99900.92
2023-02-14T04:28:30.913Z,99893.20
2023-02-14T04:29:33.082Z,99898.34
2023-02-14T04:30:35.952Z,99900.92
2023-02-14T04:31:38.092Z,99908.58
2023-02-14T04:32:41.088Z,99912.85
2023-02-14T04:33:45.072Z,99903.45
2023-02-14T04:34:48.172Z,99916.27
2023-02-14T04:35:50.365Z,99911.14
2023-02-14T04:36:52.630Z,99910.29
2023-02-14T04:37:54.828Z,99922.25
2023-02-14T04:38:57.180Z,99917.96
2023-02-14T04:39:59.388Z,99910.27
2023-02-14T04:41:02.148Z,99918.00
2023-02-14T04:42:05.377Z,99921.41
2023-02-14T04:43:07.928Z,99922.21
2023-02-14T04:44:09.884Z,99918.80
2023-02-14T04:45:12.691Z,99917.09
2023-02-14T04:46:16.018Z,99908.58
2023-02-14T04:47:18.456Z,99928.22
2023-02-14T04:48:20.790Z,99912.00
2023-02-14T04:49:23.265Z,99923.93
2023-02-14T04:50:25.892Z,99925.64
2023-02-14T04:51:28.120Z,99927.39
2023-02-14T04:52:31.083Z,99931.64
2023-02-14T04:53:33.256Z,99914.55
2023-02-14T04:54:35.377Z,99922.22
2023-02-14T04:55:37.515Z,99923.97
2023-02-14T04:56:39.944Z,99933.37
2023-02-14T04:57:42.154Z,99925.70
2023-02-14T04:58:44.152Z,99930.81
2023-02-14T04:59:46.145Z,99937.69
2023-02-14T05:00:49.071Z,99941.94
2023-02-14T05:01:52.843Z,99948.77
2023-02-14T05:02:55.222Z,99948.77
2023-02-14T05:03:57.877Z,99943.64
2023-02-14T05:05:00.403Z,99963.30
2023-02-14T05:06:02.795Z,99929.99
2023-02-14T05:07:05.468Z,99950.50
2023-02-14T05:08:07.781Z,99956.48
2023-02-14T05:09:10.904Z,99965.08
2023-02-14T05:10:14.498Z,99959.13
2023-02-14T05:11:18.028Z,99953.98
2023-02-14T05:12:20.966Z,99959.12
2023-02-14T05:13:23.335Z,99951.48
2023-02-14T05:14:26.802Z,99962.58
2023-02-14T05:15:28.978Z,99956.61
2023-02-14T05:16:32.445Z,99929.27
2023-02-14T05:17:35.577Z,99942.05
2023-02-14T05:18:38.212Z,99941.20
2023-02-14T05:19:40.793Z,99942.97
2023-02-14T05:20:43.329Z,99941.24
2023-02-14T05:21:46.529Z,99932.70
2023-02-14T05:22:48.718Z,99925.85
2023-02-14T05:23:51.031Z,99926.72
2023-02-14T05:24:53.815Z,99932.69
2023-02-14T05:25:55.932Z,99927.62
2023-02-14T05:26:58.271Z,99926.77
2023-02-14T05:28:00.351Z,99934.42
2023-02-14T05:29:02.648Z,99927.59
2023-02-14T05:30:06.337Z,99945.52
2023-02-14T05:31:09.637Z,99941.23
2023-02-14T05:32:11.856Z,99941.23
2023-02-14T05:33:14.021Z,99936.94
2023-02-14T05:34:16.273Z,99932.69
2023-02-14T05:35:18.392Z,99950.63
2023-02-14T05:36:21.208Z,99936.93
2023-02-14T05:37:23.229Z,99925.82
2023-02-14T05:38:25.576Z,99933.52
2023-02-14T05:39:27.736Z,99933.50
2023-02-14T05:40:30.488Z,99936.91
2023-02-14T05:41:32.804Z,99939.46
2023-02-14T05:42:35.022Z,99944.59
2023-02-14T05:43:37.278Z,99943.75
2023-02-14T05:44:39.417Z,99947.15
2023-02-14T05:45:41.622Z,99948.00
2023-02-14T05:46:44.264Z,99948.00
2023-02-14T05:47:48.720Z,99951.39
2023-02-14T05:48:51.820Z,99946.27
2023-02-14T05:49:54.101Z,99953.10
2023-02-14T05:50:56.462Z,99939.43
2023-02-14T05:51:58.605Z,99944.55
2023-02-14T05:53:00.964Z,99953.10
2023-02-14T05:54:03.220Z,99949.65
2023-02-14T05:55:06.892Z,99948.84
2023-02-14T05:56:09.389Z,99956.48
2023-02-14T05:57:11.616Z,99949.65
2023-02-14T05:58:15.246Z,99949.65
2023-02-14T05:59:17.642Z,99949.63
2023-02-14T06:00:21.994Z,99956.47
2023-02-14T06:01:24.987Z,99951.32
2023-02-14T06:02:28.115Z,99961.59
2023-02-14T06:03:30.548Z,99954.74
2023-02-14T06:04:32.867Z,99947.89
2023-02-14T06:05:35.412Z,99970.13
2023-02-14T06:06:38.827Z,99967.55
2023-02-14T06:07:42.715Z,99971.84
2023-02-14T06:08:44.944Z,99971.83
2023-02-14T06:09:47.328Z,99977.77
2023-02-14T06:10:50.774Z,99965.81
2023-02-14T06:11:55.330Z,99964.97
2023-02-14T06:13:00.200Z,99964.98
2023-02-14T06:14:03.553Z,99975.23
2023-02-14T06:15:06.828Z,99981.19
2023-02-14T06:16:10.785Z,99975.19
2023-02-14T06:17:13.465Z,99988.87
2023-02-14T06:18:16.016Z,99959.80
2023-02-14T06:19:19.466Z,99959.80
2023-02-14T06:20:24.013Z,99976.05
2023-02-14T06:21:27.006Z,99976.86
2023-02-14T06:22:30.763Z,99986.27
2023-02-14T06:23:34.398Z,99977.67
2023-02-14T06:24:36.720Z,99981.09
2023-02-14T06:25:39.838Z,99973.44
2023-02-14T06:26:44.018Z,99977.66
2023-02-14T06:27:48.266Z,99976.76
2023-02-14T06:28:52.813Z,99976.77
2023-02-14T06:29:55.406Z,99990.46
2023-02-14T06:30:58.252Z,99982.78
2023-02-14T06:32:02.511Z,99969.89
2023-02-14T06:33:04.825Z,99959.62
2023-02-14T06:34:06.833Z,99965.61
2023-02-14T06:35:09.481Z,99968.98
2023-02-14T06:36:12.068Z,99968.98
2023-02-14T06:37:15.185Z,99968.18
2023-02-14T06:38:17.455Z,99969.94
2023-02-14T06:39:19.764Z,99969.89
2023-02-14T06:40:23.368Z,99966.46
2023-02-14T06:41:25.634Z,99964.76
2023-02-14T06:42:27.566Z,99978.45
2023-02-14T06:43:29.814Z,99984.52
2023-02-14T06:44:32.040Z,99975.11
2023-02-14T06:45:35.158Z,99964.80
2023-02-14T06:46:38.441Z,99962.25
2023-02-14T06:47:40.764Z,99976.78
2023-02-14T06:48:43.327Z,99964.80
2023-02-14T06:49:45.579Z,99971.64
2023-02-14T06:50:48.097Z,99971.64
2023-02-14T06:51:50.840Z,99969.08
2023-02-14T06:52:52.770Z,99979.33
2023-02-14T06:53:55.653Z,99965.62
2023-02-14T06:54:57.749Z,99966.51
2023-02-14T06:55:59.866Z,99969.01
2023-02-14T06:57:01.818Z,99972.42
2023-02-14T06:58:04.046Z,99981.84
2023-02-14T06:59:06.254Z,99971.55
2023-02-14T07:00:10.924Z,99977.52
2023-02-14T07:01:13.329Z,99964.63
2023-02-14T07:02:15.564Z,99979.14
2023-02-14T07:03:17.836Z,99980.89
2023-02-14T07:04:20.033Z,99968.88
2023-02-14T07:05:22.957Z,99981.67
2023-02-14T07:06:25.900Z,99985.14
2023-02-14T07:07:29.154Z,99974.88
2023-02-14T07:08:31.981Z,99985.14
2023-02-14T07:09:37.491Z,99976.59
2023-02-14T07:10:40.739Z,99971.46
2023-02-14T07:11:45.138Z,99979.14
2023-02-14T07:12:47.454Z,99981.67
2023-02-14T07:13:49.944Z,99971.45
2023-02-14T07:14:52.583Z,99973.11
2023-02-14T07:15:55.881Z,99969.69
2023-02-14T07:18:37.267Z,99958.47
2023-02-14T07:19:39.967Z,99971.24
2023-02-14T07:20:44.395Z,99984.08
2023-02-14T07:21:47.744Z,99972.89
2023-02-14T07:22:50.209Z,99977.15
2023-02-14T07:23:52.815Z,99964.31
2023-02-14T07:24:55.012Z,99980.53
2023-02-14T07:25:57.044Z,99979.69
2023-02-14T07:26:59.243Z,99972.81
2023-02-14T07:28:01.779Z,99968.55
2023-02-14T07:29:05.610Z,99980.55
2023-02-14T07:30:09.689Z,99979.63
2023-02-14T07:31:13.201Z,99971.05
2023-02-14T07:32:15.681Z,99977.98
2023-02-14T07:33:18.325Z,99971.11
2023-02-14T07:34:20.344Z,99970.37
2023-02-14T07:35:23.153Z,99975.51
2023-02-14T07:36:25.773Z,99977.15
2023-02-14T07:37:28.389Z,99971.96
2023-02-14T07:38:31.711Z,99963.38
2023-02-14T07:39:33.964Z,99961.69
2023-02-14T07:40:36.292Z,99964.20
2023-02-14T07:41:39.633Z,99957.34
2023-02-14T07:42:43.939Z,99966.72
2023-02-14T07:43:46.249Z,99963.28
2023-02-14T07:44:49.370Z,99961.58
2023-02-14T07:45:51.675Z,99972.75
2023-02-14T07:46:53.932Z,99965.80
2023-02-14T07:47:57.963Z,99972.64
2023-02-14T07:49:01.065Z,99966.62
2023-02-14T07:50:03.888Z,99969.14
2023-02-14T07:51:06.876Z,99960.72
2023-02-14T07:52:09.412Z,99969.23
2023-02-14T07:53:12.125Z,99972.64
2023-02-14T07:54:15.338Z,99964.09
2023-02-14T07:55:18.741Z,99963.24
2023-02-14T07:56:21.814Z,99981.23
2023-02-14T07:57:23.813Z,99973.55
2023-02-14T07:58:26.236Z,99977.80
2023-02-14T07:59:28.486Z,99970.92
2023-02-14T08:00:31.200Z,99975.92
2023-02-14T08:01:34.476Z,99973.35
2023-02-14T08:02:36.729Z,99966.41
2023-02-14T08:03:39.085Z,99972.34
2023-02-14T08:04:41.245Z,99962.20
2023-02-14T08:05:43.851Z,99983.66
2023-02-14T08:06:46.084Z,99987.00
2023-02-14T08:07:49.939Z,99985.31
2023-02-14T08:08:52.832Z,99980.99
2023-02-14T08:09:55.148Z,99985.23
2023-02-14T08:10:58.049Z,99984.27
2023-02-14T08:12:19.756Z,99984.27
2023-02-14T08:13:22.328Z,99979.98
2023-02-14T08:14:24.558Z,99997.92
2023-02-14T08:15:48.739Z,99982.61
2023-02-14T08:16:50.895Z,99991.39
2023-02-14T08:17:53.054Z,100014.58
2023-02-14T08:18:55.271Z,99982.88
2023-02-14T08:19:57.406Z,99971.72
2023-02-14T08:21:08.887Z,99969.00
2023-02-14T08:22:11.394Z,99975.91
2023-02-14T08:23:13.528Z,99973.21
2023-02-14T08:24:15.838Z,99976.55
2023-02-14T08:25:18.004Z,99968.75
2023-02-14T08:26:20.594Z,100024.56
2023-02-14T08:27:22.723Z,99976.67
2023-02-14T08:28:26.423Z,99986.91
2023-02-14T08:29:29.049Z,99998.25
2023-02-14T08:30:32.778Z,99967.20
2023-02-14T08:31:36.620Z,99977.49
2023-02-14T08:32:39.195Z,99981.06
2023-02-14T08:33:43.516Z,99994.76
2023-02-14T08:34:46.200Z,99978.45
2023-02-14T08:35:51.323Z,99996.47
2023-02-14T08:36:54.601Z,99977.64
2023-02-14T08:37:56.943Z,100017.97
2023-02-14T08:38:59.184Z,99987.18
2023-02-14T08:40:02.477Z,99990.45
2023-02-14T08:41:08.309Z,100003.33
2023-02-14T08:42:09.838Z,100003.33
2023-02-14T08:43:13.164Z,99987.98
2023-02-14T08:44:15.917Z,99998.17
2023-02-14T08:45:18.489Z,99982.05
2023-02-14T08:46:20.810Z,99982.05
2023-02-14T08:47:25.750Z,99983.41
2023-02-14T08:48:28.707Z,99997.16
2023-02-14T08:49:31.745Z,99973.98
2023-02-14T08:50:35.598Z,99996.48
2023-02-14T08:51:38.356Z,99992.58
2023-02-14T08:52:43.313Z,99990.03
2023-02-14T08:53:45.864Z,100008.18
2023-02-14T08:54:49.109Z,100007.50
2023-02-14T08:55:51.986Z,99996.23
2023-02-14T08:56:57.214Z,99985.97
2023-02-14T08:58:01.849Z,99991.14
2023-02-14T08:59:04.508Z,100005.70
2023-02-14T09:00:09.305Z,100001.31
2023-02-14T09:01:17.628Z,99985.11
2023-02-14T09:02:20.039Z,100010.70
2023-02-14T09:03:23.187Z,99997.97
2023-02-14T09:04:26.487Z,100004.91
2023-02-14T09:05:29.381Z,100009.33
2023-02-14T09:06:32.561Z,99989.69
2023-02-14T09:07:35.790Z,100045.27
2023-02-14T09:08:40.096Z,100019.59
2023-02-14T09:09:42.335Z,100011.91
2023-02-14T09:10:45.203Z,100006.80
2023-02-14T09:11:47.441Z,100020.46
2023-02-14T09:12:50.754Z,100045.16
2023-02-14T09:13:53.570Z,100025.55
2023-02-14T09:14:56.368Z,100031.58
2023-02-14T09:15:58.485Z,100028.95
2023-02-14T09:17:03.938Z,100009.19
2023-02-14T09:18:06.211Z,100028.08
2023-02-14T09:19:09.547Z,100027.11
2023-02-14T09:20:14.597Z,100027.18
2023-02-14T09:21:19.633Z,100027.37
2023-02-14T09:22:24.265Z,100017.17
2023-02-14T09:23:27.346Z,100021.59
2023-02-14T09:24:31.469Z,100019.87
2023-02-14T09:25:37.333Z,100030.25
2023-02-14T09:26:41.524Z,100014.77
2023-02-14T09:27:43.904Z,100008.79
2023-02-14T09:28:47.874Z,100011.34
2023-02-14T09:29:50.472Z,100009.63
2023-02-14T09:30:54.549Z,100025.91
2023-02-14T09:32:01.263Z,100015.63
2023-02-14T09:33:04.764Z,100000.24
2023-02-14T09:34:06.948Z,100007.08
2023-02-14T09:35:09.168Z,100040.52
2023-02-14T09:36:30.562Z,100037.95
2023-02-14T09:37:33.850Z,100009.72
2023-02-14T09:39:44.488Z,100004.61
2023-02-14T09:40:50.668Z,99998.58
2023-02-14T09:42:02.566Z,100005.36
2023-02-14T09:43:30.552Z,100004.46
2023-02-14T09:44:55.828Z,99982.19
2023-02-14T09:46:01.747Z,99996.75
2023-02-14T09:47:23.311Z,99998.39
2023-02-14T09:48:37.961Z,99989.00
2023-02-14T09:49:41.040Z,99994.12
2023-02-14T09:50:49.899Z,99994.02
2023-02-14T09:51:55.622Z,99994.02
2023-02-14T09:53:04.283Z,100005.23
2023-02-14T09:54:12.452Z,99984.77
2023-02-14T09:55:17.225Z,100000.22
2023-02-14T09:56:42.724Z,100009.55
2023-02-14T09:57:49.946Z,99996.69
2023-02-14T09:59:05.719Z,100000.91
2023-02-14T10:00:37.355Z,100015.50
2023-02-14T10:01:44.244Z,100016.33
2023-02-14T10:03:12.514Z,100001.77
2023-02-14T10:04:33.367Z,100007.73
2023-02-14T10:05:54.916Z,99995.83
2023-02-14T10:07:22.080Z,100001.77
2023-02-14T10:08:43.125Z,99996.62
2023-02-14T10:10:04.048Z,99999.96
2023-02-14T10:11:13.181Z,99987.14
2023-02-14T10:12:38.695Z,99995.70
2023-02-14T10:13:52.288Z,99993.11
2023-02-14T10:14:57.846Z,99990.62
2023-02-14T10:16:09.942Z,99988.10
2023-02-14T10:17:40.563Z,99981.17
2023-02-14T10:18:49.095Z,99984.48
2023-02-14T10:19:58.574Z,99987.77
2023-02-14T10:21:03.927Z,99982.48
2023-02-14T10:22:18.262Z,100002.17
2023-02-14T10:23:39.363Z,99985.95
2023-02-14T10:24:51.420Z,99981.74
2023-02-14T10:26:06.356Z,99987.75
2023-02-14T10:27:33.899Z,99986.06
2023-02-14T10:28:51.390Z,99975.83
2023-02-14T10:29:53.531Z,99986.86
2023-02-14T10:31:04.697Z,100009.11
2023-02-14T10:32:16.656Z,99983.50
2023-02-14T10:33:21.533Z,99991.95
2023-02-14T10:34:36.763Z,100014.28
2023-02-14T10:35:46.086Z,99973.98
2023-02-14T10:37:16.982Z,99994.72
2023-02-14T10:38:39.964Z,99991.27
2023-02-14T10:39:58.094Z,99980.24
2023-02-14T10:41:16.418Z,100003.41
2023-02-14T10:42:31.790Z,99970.12
2023-02-14T10:43:43.399Z,99987.22
2023-02-14T10:44:49.362Z,99976.06
2023-02-14T10:45:56.719Z,99985.48
2023-02-14T10:47:05.005Z,99999.98
2023-02-14T10:48:30.823Z,99993.05
2023-02-14T10:49:48.669Z,99989.53
2023-02-14T10:51:06.747Z,99989.31
2023-02-14T10:52:33.772Z,99957.77
2023-02-14T10:53:39.680Z,99970.57
2023-02-14T10:54:45.577Z,99962.81
2023-02-14T10:55:56.379Z,99972.18
2023-02-14T10:57:14.018Z,99978.27
2023-02-14T10:58:19.585Z,99970.55
2023-02-14T10:59:25.481Z,99974.08
2023-02-14T11:00:34.510Z,99984.36
2023-02-14T11:01:37.202Z,99987.69
2023-02-14T11:02:43.499Z,99970.45
2023-02-14T11:04:03.775Z,99973.86
2023-02-14T11:05:07.317Z,99972.97
2023-02-14T11:06:11.716Z,99986.81
2023-02-14T11:07:21.900Z,99983.36
2023-02-14T11:08:33.841Z,99996.26
2023-02-14T11:09:36.123Z,99995.41
2023-02-14T11:10:38.565Z,99984.25
2023-02-14T11:11:50.658Z,99987.83
2023-02-14T11:12:53.823Z,99976.63
2023-02-14T11:13:56.240Z,99992.83
2023-02-14T11:15:20.692Z,99982.63
2023-02-14T11:16:35.946Z,99987.78
2023-02-14T11:17:38.277Z,99982.70
2023-02-14T11:18:41.788Z,99986.13
2023-02-14T11:19:48.117Z,99980.95
2023-02-14T11:21:06.471Z,99974.14
2023-02-14T11:22:09.587Z,99978.36
2023-02-14T11:23:21.048Z,99974.12
2023-02-14T11:24:33.181Z,99977.47
2023-02-14T11:25:36.031Z,99988.66
2023-02-14T11:26:39.532Z,99970.69
2023-02-14T11:27:46.099Z,99969.78
2023-02-14T11:28:58.663Z,99998.11
2023-02-14T11:30:01.704Z,99980.11
2023-02-14T11:31:05.119Z,99989.56
2023-02-14T11:32:17.458Z,99988.75
2023-02-14T11:33:41.009Z,99980.18
2023-02-14T11:34:57.473Z,99993.89
2023-02-14T11:36:02.622Z,99980.22
2023-02-14T11:37:25.465Z,99972.47
2023-02-14T11:38:36.820Z,99980.99
2023-02-14T11:39:40.292Z,100005.86
2023-02-14T11:40:43.373Z,99980.99
2023-02-14T11:41:48.125Z,99980.92
2023-02-14T11:42:54.598Z,99990.33
2023-02-14T11:43:58.658Z,99989.50
2023-02-14T11:45:02.516Z,99997.33
2023-02-14T11:46:18.663Z,99982.63
2023-02-14T11:47:30.267Z,99991.19
2023-02-14T11:48:39.056Z,99978.52
2023-02-14T11:49:38.592Z,99999.96
2023-02-14T11:50:43.671Z,99999.90
2023-02-14T11:51:47.929Z,100001.52
2023-02-14T11:52:57.416Z,100003.20
2023-02-14T11:54:04.455Z,99996.28
2023-02-14T11:55:06.880Z,100005.81
2023-02-14T11:56:09.633Z,99989.55
2023-02-14T11:57:18.620Z,99986.88
2023-02-14T11:58:30.730Z,99997.98
2023-02-14T11:59:39.230Z,99985.97
2023-02-14T12:00:45.322Z,99987.89
2023-02-14T12:01:47.826Z,99985.42
2023-02-14T12:02:52.085Z,99980.22
2023-02-14T12:03:58.563Z,99982.85
2023-02-14T12:05:23.655Z,99981.06
2023-02-14T12:06:30.758Z,99984.42
2023-02-14T12:07:35.901Z,99978.36
2023-02-14T12:08:41.061Z,99987.77
2023-02-14T12:09:44.413Z,99979.25
2023-02-14T12:10:50.344Z,99989.46
2023-02-14T12:12:03.960Z,99977.40
2023-02-14T12:13:12.894Z,99968.82
2023-02-14T12:14:22.474Z,99984.20
2023-02-14T12:15:39.149Z,99986.11
2023-02-14T12:16:48.001Z,99970.75
2023-02-14T12:18:02.488Z,99987.05
2023-02-14T12:19:15.160Z,99990.35
2023-02-14T12:20:21.913Z,99992.39
2023-02-14T12:21:28.009Z,100019.87
2023-02-14T12:22:39.473Z,100000.44
2023-02-14T12:24:12.469Z,100007.24
2023-02-14T12:25:36.456Z,99984.15
2023-02-14T12:26:51.559Z,100000.42
2023-02-14T12:29:20.131Z,99974.62
2023-02-14T12:30:29.747Z,99982.48
2023-02-14T12:31:43.520Z,99987.61
2023-02-14T12:32:51.552Z,99994.53
2023-02-14T12:33:54.183Z,99978.19
2023-02-14T12:35:18.446Z,99973.00
2023-02-14T12:36:39.558Z,99990.16
2023-02-14T12:38:04.926Z,100014.09
2023-02-14T12:39:19.355Z,99987.63
2023-02-14T12:40:42.926Z,100004.89
2023-02-14T12:42:24.499Z,99996.41
2023-02-14T12:43:50.089Z,99998.11
2023-02-14T12:46:40.434Z,99991.02
2023-02-14T12:48:11.139Z,99996.26
2023-02-14T12:49:36.416Z,99994.55
2023-02-14T12:51:00.063Z,99988.70
2023-02-14T12:52:26.058Z,100000.55
2023-02-14T12:53:49.410Z,99992.13
2023-02-14T12:54:58.828Z,100006.41
2023-02-14T12:56:06.687Z,99994.48
2023-02-14T12:57:28.466Z,100015.03
2023-02-14T12:58:52.945Z,100003.97
2023-02-14T13:00:17.650Z,99985.78
2023-02-14T13:01:42.170Z,99999.14
2023-02-14T13:02:58.761Z,99990.72
2023-02-14T13:04:34.391Z,99992.60
2023-02-14T13:05:59.420Z,100015.03
2023-02-14T13:07:37.862Z,100028.82
2023-02-14T13:08:49.082Z,99985.97
2023-02-14T13:10:01.350Z,99997.24
2023-02-14T13:11:19.912Z,100008.41
2023-02-14T13:12:38.948Z,100009.44
2023-02-14T13:14:01.911Z,100003.42
2023-02-14T13:15:11.680Z,100013.61
2023-02-14T13:16:35.663Z,100003.39
2023-02-14T13:17:51.930Z,100008.39
2023-02-14T13:18:57.742Z,100004.16